TSO876 HESH-URSS
Flight info
| Callsign | TSO876 |
|---|---|
| Flight time | N/A |
| Altitude | 38000 |
| Route | KUPTI1L KUPTI L677 CVO A16 RASDA M855 TOMBI UM855 AYT UW77 BAG/N0492F390 UT61 SIN UW96 ODIRA/K0911F390 G487 DIRUN DIRUN1L |
| Aircraft | B744/H-SDE3FGHIM1M2RWXY/LB1 |
Departure
| Time | 2026-04-28 14:53 |
|---|---|
| Airport | Sharm El Sheikh International Airport (HESH) |
Arrival
| Time | N/A |
|---|---|
| Airport | Sochi International Airport (URSS) |
| Time | Latitude | Longitude | Altitude | Speed | Heading |
|---|---|---|---|---|---|
| 2026-04-28 14:25 | 27.97752 | 34.38792 | 162 ft | 0 kts | 313° |
| 2026-04-28 14:39 | 27.97752 | 34.38793 | 162 ft | 0 kts | 313° |
| 2026-04-28 14:40 | 27.97751 | 34.38794 | 164 ft | 1 kts | 313° |
| 2026-04-28 14:41 | 27.97741 | 34.38806 | 164 ft | 2 kts | 313° |
| 2026-04-28 14:41 | 27.97731 | 34.38819 | 164 ft | 2 kts | 313° |
| 2026-04-28 14:41 | 27.97722 | 34.38829 | 163 ft | 0 kts | 313° |
| 2026-04-28 14:41 | 27.97715 | 34.38840 | 163 ft | 2 kts | 287° |
| 2026-04-28 14:42 | 27.97715 | 34.38856 | 162 ft | 2 kts | 246° |
| 2026-04-28 14:42 | 27.97720 | 34.38866 | 162 ft | 0 kts | 221° |
| 2026-04-28 14:42 | 27.97725 | 34.38870 | 162 ft | 0 kts | 221° |
| 2026-04-28 14:42 | 27.97724 | 34.38870 | 162 ft | 0 kts | 221° |
| 2026-04-28 14:44 | 27.97724 | 34.38869 | 162 ft | 0 kts | 221° |
| 2026-04-28 14:44 | 27.97706 | 34.38850 | 162 ft | 6 kts | 221° |
| 2026-04-28 14:44 | 27.97658 | 34.38802 | 162 ft | 11 kts | 223° |
| 2026-04-28 14:45 | 27.97590 | 34.38728 | 162 ft | 13 kts | 223° |
| 2026-04-28 14:45 | 27.97527 | 34.38663 | 162 ft | 10 kts | 222° |
| 2026-04-28 14:45 | 27.97480 | 34.38614 | 162 ft | 7 kts | 222° |
| 2026-04-28 14:45 | 27.97447 | 34.38580 | 162 ft | 5 kts | 222° |
| 2026-04-28 14:46 | 27.97423 | 34.38555 | 162 ft | 3 kts | 222° |
| 2026-04-28 14:46 | 27.97419 | 34.38551 | 162 ft | 3 kts | 222° |
| 2026-04-28 14:46 | 27.97413 | 34.38545 | 162 ft | 0 kts | 222° |
| 2026-04-28 14:47 | 27.97412 | 34.38544 | 162 ft | 0 kts | 222° |
| 2026-04-28 14:47 | 27.97364 | 34.38495 | 162 ft | 0 kts | 221° |
| 2026-04-28 14:47 | 27.97353 | 34.38484 | 162 ft | 13 kts | 221° |
| 2026-04-28 14:48 | 27.97273 | 34.38401 | 162 ft | 16 kts | 223° |
| 2026-04-28 14:48 | 27.97223 | 34.38348 | 162 ft | 0 kts | 221° |
| 2026-04-28 14:49 | 27.97222 | 34.38348 | 162 ft | 0 kts | 222° |
| 2026-04-28 14:49 | 27.97196 | 34.38320 | 162 ft | 8 kts | 224° |
| 2026-04-28 14:50 | 27.97134 | 34.38252 | 162 ft | 15 kts | 224° |
| 2026-04-28 14:50 | 27.97050 | 34.38162 | 162 ft | 10 kts | 222° |
| 2026-04-28 14:50 | 27.97002 | 34.38123 | 162 ft | 6 kts | 188° |
| 2026-04-28 14:50 | 27.96966 | 34.38138 | 162 ft | 5 kts | 139° |
| 2026-04-28 14:51 | 27.96932 | 34.38180 | 162 ft | 8 kts | 131° |
| 2026-04-28 14:51 | 27.96887 | 34.38235 | 162 ft | 9 kts | 124° |
| 2026-04-28 14:51 | 27.96891 | 34.38305 | 162 ft | 10 kts | 56° |
| 2026-04-28 14:51 | 27.96977 | 34.38394 | 162 ft | 37 kts | 42° |
| 2026-04-28 14:52 | 27.97310 | 34.38744 | 162 ft | 93 kts | 42° |
| 2026-04-28 14:52 | 27.97927 | 34.39387 | 162 ft | 144 kts | 43° |
| 2026-04-28 14:52 | 27.98585 | 34.40074 | 161 ft | 93 kts | 43° |
| 2026-04-28 14:52 | 27.99248 | 34.40785 | 166 ft | 162 kts | 44° |
| 2026-04-28 14:53 | 28.00124 | 34.41668 | 441 ft | 175 kts | 35° |
| 2026-04-28 14:53 | 28.01197 | 34.42351 | 858 ft | 179 kts | 25° |
| 2026-04-28 14:53 | 28.02370 | 34.42976 | 1101 ft | 197 kts | 23° |
| 2026-04-28 14:53 | 28.03662 | 34.43630 | 1416 ft | 204 kts | 22° |
| 2026-04-28 14:54 | 28.04958 | 34.44305 | 1859 ft | 206 kts | 22° |
| 2026-04-28 14:54 | 28.05891 | 34.44785 | 2173 ft | 206 kts | 21° |
| 2026-04-28 14:54 | 28.07212 | 34.45450 | 2632 ft | 206 kts | 22° |
| 2026-04-28 14:54 | 28.08510 | 34.46106 | 3054 ft | 207 kts | 21° |
| 2026-04-28 14:55 | 28.09849 | 34.46778 | 3432 ft | 211 kts | 21° |
| 2026-04-28 14:55 | 28.11243 | 34.47480 | 3596 ft | 229 kts | 22° |
| 2026-04-28 14:55 | 28.12780 | 34.48213 | 3733 ft | 247 kts | 15° |
| 2026-04-28 14:55 | 28.14558 | 34.48472 | 3829 ft | 269 kts | 359° |
| 2026-04-28 14:56 | 28.16489 | 34.48449 | 4264 ft | 279 kts | 359° |
| 2026-04-28 14:56 | 28.18417 | 34.48460 | 4948 ft | 280 kts | 0° |
| 2026-04-28 14:56 | 28.20374 | 34.48467 | 5512 ft | 283 kts | 359° |
| 2026-04-28 14:56 | 28.22331 | 34.48124 | 6128 ft | 286 kts | 341° |
| 2026-04-28 14:57 | 28.24055 | 34.47054 | 6736 ft | 290 kts | 322° |
| 2026-04-28 14:57 | 28.25012 | 34.45963 | 7132 ft | 293 kts | 309° |
| 2026-04-28 14:57 | 28.26207 | 34.43173 | 7915 ft | 298 kts | 289° |
| 2026-04-28 14:57 | 28.26847 | 34.40944 | 8508 ft | 298 kts | 292° |
| 2026-04-28 14:58 | 28.27596 | 34.38759 | 9105 ft | 298 kts | 294° |
| 2026-04-28 14:58 | 28.28379 | 34.36615 | 9634 ft | 300 kts | 294° |
| 2026-04-28 14:58 | 28.29206 | 34.34436 | 10109 ft | 304 kts | 294° |
| 2026-04-28 14:58 | 28.30068 | 34.32212 | 10509 ft | 310 kts | 295° |
| 2026-04-28 14:59 | 28.30964 | 34.29957 | 10814 ft | 321 kts | 295° |
| 2026-04-28 14:59 | 28.31911 | 34.27597 | 10955 ft | 336 kts | 295° |
| 2026-04-28 14:59 | 28.32920 | 34.25116 | 10811 ft | 360 kts | 295° |
| 2026-04-28 14:59 | 28.34014 | 34.22458 | 10624 ft | 382 kts | 295° |
| 2026-04-28 15:00 | 28.35171 | 34.19695 | 11039 ft | 386 kts | 296° |
| 2026-04-28 15:00 | 28.36314 | 34.16975 | 11530 ft | 387 kts | 295° |
| 2026-04-28 15:00 | 28.37472 | 34.14207 | 12068 ft | 386 kts | 295° |
| 2026-04-28 15:00 | 28.38633 | 34.11426 | 12487 ft | 389 kts | 295° |
| 2026-04-28 15:01 | 28.39771 | 34.08680 | 12987 ft | 389 kts | 295° |
| 2026-04-28 15:01 | 28.40930 | 34.05888 | 13362 ft | 392 kts | 295° |
| 2026-04-28 15:01 | 28.42105 | 34.03095 | 13800 ft | 393 kts | 296° |
| 2026-04-28 15:01 | 28.43289 | 34.00317 | 14283 ft | 392 kts | 295° |
| 2026-04-28 15:02 | 28.44466 | 33.97525 | 14656 ft | 394 kts | 295° |
| 2026-04-28 15:02 | 28.45650 | 33.94726 | 15085 ft | 393 kts | 295° |
| 2026-04-28 15:02 | 28.46826 | 33.91939 | 15493 ft | 393 kts | 295° |
| 2026-04-28 15:02 | 28.48013 | 33.89117 | 15790 ft | 396 kts | 295° |
| 2026-04-28 15:03 | 28.49201 | 33.86287 | 16176 ft | 396 kts | 294° |
| 2026-04-28 15:03 | 28.50391 | 33.83445 | 16512 ft | 398 kts | 294° |
| 2026-04-28 15:03 | 28.51580 | 33.80615 | 16857 ft | 399 kts | 294° |
| 2026-04-28 15:03 | 28.52769 | 33.77782 | 17227 ft | 398 kts | 294° |
| 2026-04-28 15:04 | 28.53954 | 33.74941 | 17530 ft | 400 kts | 294° |
| 2026-04-28 15:04 | 28.55149 | 33.72083 | 17919 ft | 399 kts | 294° |
| 2026-04-28 15:04 | 28.56338 | 33.69245 | 18236 ft | 400 kts | 294° |
| 2026-04-28 15:04 | 28.57536 | 33.66392 | 18537 ft | 402 kts | 294° |
| 2026-04-28 15:05 | 28.58749 | 33.63497 | 18863 ft | 403 kts | 294° |
| 2026-04-28 15:05 | 28.59946 | 33.60621 | 19116 ft | 405 kts | 294° |
| 2026-04-28 15:05 | 28.61190 | 33.57739 | 19472 ft | 405 kts | 298° |
| 2026-04-28 15:05 | 28.62884 | 33.55191 | 19672 ft | 411 kts | 312° |
| 2026-04-28 15:06 | 28.65131 | 33.53157 | 19977 ft | 416 kts | 324° |
| 2026-04-28 15:06 | 28.67528 | 33.51309 | 20347 ft | 420 kts | 316° |
| 2026-04-28 15:06 | 28.69494 | 33.48892 | 21129 ft | 415 kts | 305° |
| 2026-04-28 15:06 | 28.71256 | 33.46269 | 21765 ft | 419 kts | 305° |
| 2026-04-28 15:07 | 28.73051 | 33.43658 | 22479 ft | 421 kts | 305° |
| 2026-04-28 15:07 | 28.74841 | 33.41005 | 23174 ft | 422 kts | 304° |
| 2026-04-28 15:07 | 28.76625 | 33.38356 | 23710 ft | 426 kts | 304° |
| 2026-04-28 15:07 | 28.78437 | 33.35654 | 24331 ft | 427 kts | 304° |
| 2026-04-28 15:08 | 28.80252 | 33.32947 | 24936 ft | 428 kts | 304° |
| 2026-04-28 15:08 | 28.82054 | 33.30244 | 25472 ft | 431 kts | 303° |
| 2026-04-28 15:08 | 28.83870 | 33.27533 | 26008 ft | 433 kts | 304° |
| 2026-04-28 15:08 | 28.85694 | 33.24797 | 26524 ft | 434 kts | 304° |
| 2026-04-28 15:09 | 28.87519 | 33.22048 | 26961 ft | 437 kts | 304° |
| 2026-04-28 15:09 | 28.89330 | 33.19338 | 27406 ft | 440 kts | 304° |
| 2026-04-28 15:09 | 28.91150 | 33.16591 | 27876 ft | 442 kts | 304° |
| 2026-04-28 15:09 | 28.93060 | 33.13718 | 28282 ft | 445 kts | 304° |
| 2026-04-28 15:10 | 28.94888 | 33.10972 | 28558 ft | 450 kts | 304° |
| 2026-04-28 15:10 | 28.96781 | 33.08117 | 28727 ft | 458 kts | 304° |
| 2026-04-28 15:10 | 28.98747 | 33.05145 | 28702 ft | 468 kts | 304° |
| 2026-04-28 15:10 | 29.00715 | 33.02178 | 28929 ft | 471 kts | 304° |
| 2026-04-28 15:11 | 29.02678 | 32.99207 | 29278 ft | 471 kts | 304° |
| 2026-04-28 15:11 | 29.04650 | 32.96226 | 29575 ft | 472 kts | 304° |
| 2026-04-28 15:11 | 29.06644 | 32.93218 | 29843 ft | 471 kts | 304° |
| 2026-04-28 15:11 | 29.08243 | 32.90799 | 30041 ft | 471 kts | 304° |
| 2026-04-28 15:12 | 29.09865 | 32.88355 | 30234 ft | 471 kts | 304° |
| 2026-04-28 15:12 | 29.11567 | 32.85759 | 30420 ft | 471 kts | 303° |
| 2026-04-28 15:12 | 29.13333 | 32.83102 | 30609 ft | 470 kts | 304° |
| 2026-04-28 15:13 | 29.15302 | 32.80121 | 30817 ft | 469 kts | 303° |
| 2026-04-28 15:13 | 29.17252 | 32.77145 | 30989 ft | 469 kts | 303° |
| 2026-04-28 15:13 | 29.19129 | 32.74316 | 31119 ft | 468 kts | 304° |
| 2026-04-28 15:14 | 29.22819 | 32.68729 | 31328 ft | 467 kts | 303° |
| 2026-04-28 15:14 | 29.26679 | 32.62811 | 31578 ft | 466 kts | 303° |
| 2026-04-28 15:14 | 29.28580 | 32.59807 | 31686 ft | 466 kts | 303° |
| 2026-04-28 15:15 | 29.30563 | 32.56865 | 31780 ft | 467 kts | 306° |
| 2026-04-28 15:15 | 29.32606 | 32.54007 | 31931 ft | 465 kts | 305° |
| 2026-04-28 15:15 | 29.34627 | 32.51078 | 32023 ft | 465 kts | 305° |
| 2026-04-28 15:16 | 29.38618 | 32.45295 | 32243 ft | 463 kts | 304° |
| 2026-04-28 15:16 | 29.40616 | 32.42394 | 32368 ft | 461 kts | 304° |
| 2026-04-28 15:16 | 29.42583 | 32.39536 | 32519 ft | 460 kts | 304° |
| 2026-04-28 15:16 | 29.44555 | 32.36655 | 32677 ft | 458 kts | 304° |
| 2026-04-28 15:17 | 29.46509 | 32.33800 | 32840 ft | 456 kts | 304° |
| 2026-04-28 15:17 | 29.48452 | 32.30962 | 33035 ft | 454 kts | 304° |
| 2026-04-28 15:17 | 29.50405 | 32.28102 | 33217 ft | 452 kts | 304° |
| 2026-04-28 15:17 | 29.52155 | 32.25541 | 33337 ft | 451 kts | 304° |
| 2026-04-28 15:18 | 29.54081 | 32.22724 | 33460 ft | 451 kts | 303° |
| 2026-04-28 15:18 | 29.56018 | 32.19888 | 33575 ft | 450 kts | 303° |
| 2026-04-28 15:18 | 29.57949 | 32.17066 | 33625 ft | 450 kts | 304° |
| 2026-04-28 15:19 | 29.61209 | 32.12273 | 33748 ft | 449 kts | 304° |
| 2026-04-28 15:19 | 29.62964 | 32.09675 | 33856 ft | 448 kts | 303° |
| 2026-04-28 15:19 | 29.64890 | 32.06856 | 33919 ft | 448 kts | 304° |
| 2026-04-28 15:20 | 29.69363 | 32.01880 | 34018 ft | 461 kts | 322° |
| 2026-04-28 15:20 | 29.72307 | 32.00250 | 34025 ft | 473 kts | 334° |
| 2026-04-28 15:20 | 29.75515 | 31.99341 | 34035 ft | 484 kts | 342° |
| 2026-04-28 15:21 | 29.82060 | 31.97785 | 34071 ft | 469 kts | 339° |
| 2026-04-28 15:21 | 29.85179 | 31.96906 | 33991 ft | 455 kts | 338° |
| 2026-04-28 15:21 | 29.88238 | 31.96028 | 33935 ft | 451 kts | 338° |
| 2026-04-28 15:22 | 29.94354 | 31.94216 | 33963 ft | 457 kts | 338° |
| 2026-04-28 15:22 | 30.00527 | 31.92371 | 33985 ft | 459 kts | 338° |
| 2026-04-28 15:23 | 30.06692 | 31.90511 | 33977 ft | 459 kts | 338° |
| 2026-04-28 15:23 | 30.12870 | 31.88628 | 33970 ft | 459 kts | 338° |
| 2026-04-28 15:24 | 30.18874 | 31.86793 | 33911 ft | 459 kts | 338° |
| 2026-04-28 15:24 | 30.25065 | 31.84908 | 33960 ft | 460 kts | 337° |
| 2026-04-28 15:25 | 30.29975 | 31.83409 | 33967 ft | 459 kts | 338° |
| 2026-04-28 15:25 | 30.36066 | 31.81538 | 33986 ft | 458 kts | 338° |
| 2026-04-28 15:26 | 30.42247 | 31.79647 | 33969 ft | 458 kts | 338° |
| 2026-04-28 15:26 | 30.48411 | 31.77755 | 33961 ft | 459 kts | 338° |
| 2026-04-28 15:27 | 30.54583 | 31.75855 | 33958 ft | 460 kts | 338° |
| 2026-04-28 15:27 | 30.60791 | 31.73944 | 33961 ft | 460 kts | 338° |
| 2026-04-28 15:28 | 30.66971 | 31.72037 | 33957 ft | 460 kts | 338° |
| 2026-04-28 15:28 | 30.73154 | 31.70129 | 34009 ft | 459 kts | 338° |
| 2026-04-28 15:29 | 30.79334 | 31.68223 | 33996 ft | 460 kts | 338° |
| 2026-04-28 15:29 | 30.85503 | 31.66311 | 33975 ft | 460 kts | 338° |
| 2026-04-28 15:30 | 30.91706 | 31.64390 | 33968 ft | 461 kts | 338° |
| 2026-04-28 15:30 | 30.97884 | 31.62469 | 33979 ft | 462 kts | 339° |
| 2026-04-28 15:31 | 31.04101 | 31.60541 | 33978 ft | 461 kts | 339° |
| 2026-04-28 15:31 | 31.10312 | 31.58610 | 33994 ft | 461 kts | 339° |
| 2026-04-28 15:32 | 31.16534 | 31.56677 | 33986 ft | 462 kts | 339° |
| 2026-04-28 15:32 | 31.22710 | 31.54744 | 33971 ft | 461 kts | 339° |
| 2026-04-28 15:33 | 31.28929 | 31.52804 | 33991 ft | 461 kts | 339° |
| 2026-04-28 15:33 | 31.35113 | 31.50871 | 33981 ft | 463 kts | 339° |
| 2026-04-28 15:34 | 31.41351 | 31.48913 | 33998 ft | 463 kts | 339° |
| 2026-04-28 15:34 | 31.47572 | 31.46962 | 33996 ft | 464 kts | 339° |
| 2026-04-28 15:35 | 31.53829 | 31.44992 | 33990 ft | 463 kts | 339° |
| 2026-04-28 15:35 | 31.63185 | 31.42050 | 34000 ft | 464 kts | 339° |
| 2026-04-28 15:36 | 31.69418 | 31.40084 | 33988 ft | 464 kts | 339° |
| 2026-04-28 15:36 | 31.75667 | 31.38120 | 34007 ft | 465 kts | 339° |
| 2026-04-28 15:37 | 31.81908 | 31.36143 | 34017 ft | 464 kts | 339° |
| 2026-04-28 15:37 | 31.88167 | 31.34162 | 34008 ft | 464 kts | 339° |
| 2026-04-28 15:38 | 31.94395 | 31.32189 | 34017 ft | 464 kts | 339° |
| 2026-04-28 15:38 | 32.00668 | 31.30189 | 34028 ft | 465 kts | 339° |
| 2026-04-28 15:39 | 32.06905 | 31.28213 | 34011 ft | 465 kts | 339° |
| 2026-04-28 15:39 | 32.13171 | 31.26216 | 34011 ft | 464 kts | 339° |
| 2026-04-28 15:40 | 32.19389 | 31.24227 | 34010 ft | 466 kts | 340° |
| 2026-04-28 15:40 | 32.25676 | 31.22227 | 34027 ft | 466 kts | 340° |
| 2026-04-28 15:41 | 32.31933 | 31.20221 | 34016 ft | 466 kts | 340° |
| 2026-04-28 15:41 | 32.38180 | 31.18229 | 34018 ft | 465 kts | 340° |
| 2026-04-28 15:42 | 32.44416 | 31.16226 | 34013 ft | 465 kts | 340° |
| 2026-04-28 15:42 | 32.50690 | 31.14213 | 34038 ft | 465 kts | 340° |
| 2026-04-28 15:43 | 32.56924 | 31.12214 | 34008 ft | 466 kts | 340° |
| 2026-04-28 15:43 | 32.63167 | 31.10195 | 34026 ft | 466 kts | 341° |
| 2026-04-28 15:44 | 32.69414 | 31.08176 | 34016 ft | 466 kts | 341° |
| 2026-04-28 15:44 | 32.75696 | 31.06151 | 34037 ft | 465 kts | 341° |
| 2026-04-28 15:45 | 32.81962 | 31.04124 | 34023 ft | 465 kts | 341° |
| 2026-04-28 15:45 | 32.88174 | 31.02118 | 34031 ft | 464 kts | 341° |
| 2026-04-28 15:46 | 32.94405 | 31.00098 | 34000 ft | 464 kts | 341° |
| 2026-04-28 15:46 | 33.00647 | 30.98081 | 34023 ft | 465 kts | 341° |
| 2026-04-28 15:47 | 33.06889 | 30.96047 | 34000 ft | 466 kts | 341° |
| 2026-04-28 15:47 | 33.13176 | 30.93940 | 33973 ft | 468 kts | 344° |
| 2026-04-28 15:48 | 33.16419 | 30.93496 | 33959 ft | 473 kts | 357° |
| 2026-04-28 15:48 | 33.19724 | 30.93783 | 33991 ft | 474 kts | 2° |
| 2026-04-28 15:48 | 33.26295 | 30.94075 | 33998 ft | 472 kts | 356° |
| 2026-04-28 15:49 | 33.32859 | 30.94019 | 33995 ft | 471 kts | 355° |
| 2026-04-28 15:49 | 33.39408 | 30.93853 | 33981 ft | 471 kts | 355° |
| 2026-04-28 15:50 | 33.45996 | 30.93633 | 33985 ft | 472 kts | 355° |
| 2026-04-28 15:50 | 33.52593 | 30.93397 | 34001 ft | 473 kts | 355° |
| 2026-04-28 15:51 | 33.59136 | 30.93160 | 34004 ft | 471 kts | 355° |
| 2026-04-28 15:51 | 33.65711 | 30.92913 | 33975 ft | 470 kts | 355° |
| 2026-04-28 15:52 | 33.72236 | 30.92666 | 33976 ft | 470 kts | 355° |
| 2026-04-28 15:52 | 33.78783 | 30.92417 | 33976 ft | 470 kts | 355° |
| 2026-04-28 15:53 | 33.85310 | 30.92162 | 33980 ft | 472 kts | 355° |
| 2026-04-28 15:53 | 33.91920 | 30.91915 | 33982 ft | 471 kts | 355° |
| 2026-04-28 15:54 | 33.98433 | 30.91613 | 33980 ft | 470 kts | 354° |
| 2026-04-28 15:54 | 34.04993 | 30.91248 | 33972 ft | 470 kts | 354° |
| 2026-04-28 15:55 | 34.11518 | 30.90887 | 33966 ft | 471 kts | 355° |
| 2026-04-28 15:55 | 34.18080 | 30.90526 | 33968 ft | 472 kts | 354° |
| 2026-04-28 15:56 | 34.24638 | 30.90151 | 33964 ft | 471 kts | 354° |
| 2026-04-28 15:56 | 34.31176 | 30.89841 | 33962 ft | 470 kts | 355° |
| 2026-04-28 15:57 | 34.37712 | 30.89518 | 33961 ft | 470 kts | 355° |
| 2026-04-28 15:57 | 34.44245 | 30.89198 | 33959 ft | 470 kts | 355° |
| 2026-04-28 15:58 | 34.50768 | 30.88882 | 33961 ft | 470 kts | 355° |
| 2026-04-28 15:58 | 34.57315 | 30.88555 | 33958 ft | 470 kts | 355° |
| 2026-04-28 15:59 | 34.63844 | 30.88248 | 33956 ft | 470 kts | 356° |
| 2026-04-28 15:59 | 34.70391 | 30.88052 | 33955 ft | 470 kts | 356° |
| 2026-04-28 16:00 | 34.76949 | 30.87839 | 33941 ft | 471 kts | 356° |
| 2026-04-28 16:00 | 34.83503 | 30.87623 | 33939 ft | 471 kts | 356° |
| 2026-04-28 16:01 | 34.90018 | 30.87401 | 33937 ft | 471 kts | 356° |
| 2026-04-28 16:01 | 34.96595 | 30.87185 | 33932 ft | 472 kts | 356° |
| 2026-04-28 16:02 | 35.03162 | 30.86967 | 33928 ft | 471 kts | 356° |
| 2026-04-28 16:02 | 35.09708 | 30.86753 | 33926 ft | 472 kts | 356° |
| 2026-04-28 16:03 | 35.16293 | 30.86528 | 33926 ft | 473 kts | 356° |
| 2026-04-28 16:03 | 35.22360 | 30.86329 | 33920 ft | 472 kts | 356° |
| 2026-04-28 16:04 | 35.28644 | 30.86117 | 33916 ft | 471 kts | 356° |
| 2026-04-28 16:04 | 35.34850 | 30.85909 | 33917 ft | 471 kts | 356° |
| 2026-04-28 16:05 | 35.41407 | 30.85686 | 33918 ft | 471 kts | 356° |
| 2026-04-28 16:05 | 35.47964 | 30.85470 | 33918 ft | 472 kts | 356° |
| 2026-04-28 16:06 | 35.54526 | 30.85250 | 33915 ft | 473 kts | 356° |
| 2026-04-28 16:06 | 35.61134 | 30.85019 | 33914 ft | 472 kts | 356° |
| 2026-04-28 16:07 | 35.67669 | 30.84635 | 33912 ft | 472 kts | 355° |
| 2026-04-28 16:08 | 35.77538 | 30.84055 | 33911 ft | 472 kts | 355° |
| 2026-04-28 16:08 | 35.84088 | 30.83661 | 33908 ft | 472 kts | 355° |
| 2026-04-28 16:09 | 35.93921 | 30.83067 | 33914 ft | 472 kts | 355° |
| 2026-04-28 16:10 | 36.03820 | 30.82466 | 33919 ft | 472 kts | 355° |
| 2026-04-28 16:10 | 36.13669 | 30.82130 | 33924 ft | 474 kts | 356° |
| 2026-04-28 16:11 | 36.24988 | 30.81752 | 33921 ft | 476 kts | 356° |
| 2026-04-28 16:12 | 36.34390 | 30.81444 | 33923 ft | 473 kts | 356° |
| 2026-04-28 16:13 | 36.43876 | 30.81117 | 33925 ft | 474 kts | 356° |
| 2026-04-28 16:14 | 36.57084 | 30.80670 | 33928 ft | 475 kts | 356° |
| 2026-04-28 16:15 | 36.70269 | 30.80213 | 33930 ft | 474 kts | 356° |
| 2026-04-28 16:15 | 36.76870 | 30.79986 | 33930 ft | 474 kts | 356° |
| 2026-04-28 16:16 | 36.86755 | 30.79643 | 33930 ft | 473 kts | 356° |
| 2026-04-28 16:17 | 36.93298 | 30.80344 | 33909 ft | 481 kts | 14° |
| 2026-04-28 16:17 | 36.96435 | 30.81951 | 33916 ft | 486 kts | 26° |
| 2026-04-28 16:17 | 37.02290 | 30.86161 | 33955 ft | 488 kts | 26° |
| 2026-04-28 16:18 | 37.08239 | 30.90215 | 33954 ft | 487 kts | 26° |
| 2026-04-28 16:18 | 37.14201 | 30.94247 | 33959 ft | 486 kts | 26° |
| 2026-04-28 16:19 | 37.20136 | 30.98256 | 33977 ft | 485 kts | 26° |
| 2026-04-28 16:19 | 37.25740 | 31.02041 | 34011 ft | 486 kts | 26° |
| 2026-04-28 16:20 | 37.31071 | 31.05645 | 34021 ft | 487 kts | 26° |
| 2026-04-28 16:20 | 37.37565 | 31.10012 | 34020 ft | 486 kts | 22° |
| 2026-04-28 16:21 | 37.43338 | 31.13345 | 34040 ft | 486 kts | 22° |
| 2026-04-28 16:21 | 37.49247 | 31.16845 | 34052 ft | 486 kts | 22° |
| 2026-04-28 16:22 | 37.55376 | 31.20473 | 34063 ft | 487 kts | 22° |
| 2026-04-28 16:22 | 37.61493 | 31.24107 | 34073 ft | 487 kts | 22° |
| 2026-04-28 16:23 | 37.67616 | 31.27743 | 34080 ft | 487 kts | 22° |
| 2026-04-28 16:23 | 37.73735 | 31.31392 | 34090 ft | 488 kts | 22° |
| 2026-04-28 16:24 | 37.79845 | 31.35036 | 34091 ft | 487 kts | 22° |
| 2026-04-28 16:24 | 37.85986 | 31.38717 | 34095 ft | 487 kts | 22° |
| 2026-04-28 16:25 | 37.92107 | 31.42383 | 34089 ft | 488 kts | 22° |
| 2026-04-28 16:25 | 37.98243 | 31.46060 | 34095 ft | 490 kts | 22° |
| 2026-04-28 16:26 | 38.04403 | 31.49763 | 34091 ft | 491 kts | 22° |
| 2026-04-28 16:26 | 38.10556 | 31.53485 | 34091 ft | 491 kts | 22° |
| 2026-04-28 16:27 | 38.16671 | 31.57315 | 34088 ft | 490 kts | 22° |
| 2026-04-28 16:28 | 38.24414 | 31.62174 | 34080 ft | 488 kts | 22° |
| 2026-04-28 16:28 | 38.30470 | 31.65991 | 34071 ft | 488 kts | 23° |
| 2026-04-28 16:29 | 38.38059 | 31.70783 | 34070 ft | 489 kts | 24° |
| 2026-04-28 16:30 | 38.46541 | 31.76162 | 34072 ft | 489 kts | 23° |
| 2026-04-28 16:30 | 38.52062 | 31.79670 | 34068 ft | 489 kts | 23° |
| 2026-04-28 16:31 | 38.57831 | 31.83345 | 34063 ft | 489 kts | 23° |
| 2026-04-28 16:31 | 38.63801 | 31.87153 | 34057 ft | 489 kts | 24° |
| 2026-04-28 16:32 | 38.69890 | 31.91038 | 34053 ft | 489 kts | 24° |
| 2026-04-28 16:32 | 38.77564 | 31.95951 | 34041 ft | 489 kts | 23° |
| 2026-04-28 16:33 | 38.82656 | 31.99222 | 34036 ft | 489 kts | 23° |
| 2026-04-28 16:33 | 38.89776 | 32.03791 | 34024 ft | 489 kts | 23° |
| 2026-04-28 16:34 | 38.95862 | 32.07708 | 34022 ft | 489 kts | 23° |
| 2026-04-28 16:34 | 39.01916 | 32.11618 | 34023 ft | 489 kts | 23° |
| 2026-04-28 16:35 | 39.07959 | 32.15519 | 34031 ft | 487 kts | 24° |
| 2026-04-28 16:35 | 39.13553 | 32.20470 | 34011 ft | 494 kts | 41° |
| 2026-04-28 16:36 | 39.18555 | 32.26577 | 34048 ft | 496 kts | 40° |
| 2026-04-28 16:36 | 39.23566 | 32.32662 | 34037 ft | 504 kts | 40° |
| 2026-04-28 16:37 | 39.27184 | 32.37082 | 34074 ft | 514 kts | 40° |
| 2026-04-28 16:38 | 39.34541 | 32.46097 | 34065 ft | 527 kts | 41° |
| 2026-04-28 16:38 | 39.39462 | 32.52143 | 34054 ft | 528 kts | 41° |
| 2026-04-28 16:39 | 39.44777 | 32.58690 | 34044 ft | 528 kts | 41° |
| 2026-04-28 16:39 | 39.50080 | 32.65241 | 34040 ft | 528 kts | 41° |
| 2026-04-28 16:40 | 39.55373 | 32.71791 | 34039 ft | 527 kts | 41° |
| 2026-04-28 16:40 | 39.60665 | 32.78351 | 34032 ft | 527 kts | 41° |
| 2026-04-28 16:41 | 39.65984 | 32.84964 | 34031 ft | 528 kts | 41° |
| 2026-04-28 16:41 | 39.71298 | 32.91582 | 34046 ft | 529 kts | 41° |
| 2026-04-28 16:42 | 39.74667 | 32.95793 | 34035 ft | 529 kts | 41° |